Time;durP1;ratioP1;P1;durP2;ratioP2;P2;SDS_P1;SDS_P2;PMS_P1;PMS_P2;Temp;Humidity;BMP_temperature;BMP_pressure;BME280_temperature;BME280_humidity;BME280_pressure;Samples;Min_cycle;Max_cycle;Signal;HPM_P1;HPM_P2
2024/03/14 00:00:48;;;;;;;6.53;5.80;;;12.40;99.90;;;;;;5050291;28;20675;-58
2024/03/14 00:03:16;;;;;;;6.57;5.60;;;12.30;99.90;;;;;;5050265;28;20260;-59
2024/03/14 00:05:43;;;;;;;7.63;5.57;;;12.40;99.90;;;;;;5049781;28;20269;-60
2024/03/14 00:08:09;;;;;;;6.10;5.50;;;12.40;99.90;;;;;;5050339;28;20202;-59
2024/03/14 00:10:37;;;;;;;6.90;5.67;;;12.50;99.90;;;;;;5050343;28;20221;-58
2024/03/14 00:13:04;;;;;;;6.80;5.47;;;12.50;99.90;;;;;;5050374;28;20221;-59
2024/03/14 00:15:31;;;;;;;6.13;5.53;;;12.50;99.90;;;;;;5049673;28;20237;-60
2024/03/14 00:17:58;;;;;;;6.43;5.60;;;12.50;99.90;;;;;;5050296;28;20242;-59
2024/03/14 00:20:25;;;;;;;6.40;5.23;;;12.60;99.90;;;;;;5050054;28;20249;-60
2024/03/14 00:22:51;;;;;;;5.50;4.97;;;12.60;99.90;;;;;;5050113;28;20213;-59
2024/03/14 00:25:18;;;;;;;6.87;4.87;;;12.60;99.90;;;;;;5053447;28;20230;-58
2024/03/14 00:27:45;;;;;;;8.73;5.10;;;12.60;99.90;;;;;;5053911;28;20617;-60
2024/03/14 00:30:14;;;;;;;5.67;5.10;;;12.60;99.90;;;;;;5053873;28;20209;-60
2024/03/14 00:32:41;;;;;;;6.67;5.50;;;12.60;99.90;;;;;;5053632;28;20619;-60
2024/03/14 00:35:08;;;;;;;7.27;5.33;;;12.60;99.90;;;;;;5056223;28;20233;-59
2024/03/14 00:37:36;;;;;;;7.07;6.00;;;12.60;99.90;;;;;;5051865;28;20218;-60
2024/03/14 00:40:04;;;;;;;6.40;5.63;;;12.50;99.90;;;;;;5053864;28;20659;-60
2024/03/14 00:42:31;;;;;;;9.70;6.93;;;12.30;99.90;;;;;;5053394;28;20668;-60
2024/03/14 00:44:58;;;;;;;6.97;5.90;;;12.30;99.90;;;;;;5053307;28;20275;-60
2024/03/14 00:47:26;;;;;;;6.60;5.90;;;12.20;99.90;;;;;;5053615;28;20205;-60
2024/03/14 00:49:53;;;;;;;7.03;5.50;;;12.20;99.90;;;;;;5053818;28;20205;-60
2024/03/14 00:52:20;;;;;;;7.37;5.47;;;12.10;99.90;;;;;;5053592;28;20206;-60
2024/03/14 00:54:47;;;;;;;8.87;5.97;;;12.10;99.90;;;;;;5053008;28;20229;-58
2024/03/14 00:57:15;;;;;;;6.27;5.67;;;12.20;99.90;;;;;;5055162;28;20241;-60
2024/03/14 00:59:43;;;;;;;6.73;5.90;;;12.20;99.90;;;;;;5051960;28;20609;-60
2024/03/14 01:02:11;;;;;;;6.60;6.00;;;12.30;99.90;;;;;;5053393;28;20210;-60
2024/03/14 01:04:38;;;;;;;7.77;5.70;;;12.30;99.90;;;;;;5052992;28;20232;-59
2024/03/14 01:07:05;;;;;;;7.87;6.03;;;12.30;99.90;;;;;;5053292;28;20209;-59
2024/03/14 01:09:32;;;;;;;7.00;6.30;;;12.20;99.90;;;;;;5053157;28;20817;-60
2024/03/14 01:11:59;;;;;;;8.00;6.37;;;12.20;99.90;;;;;;5053250;28;20621;-59
2024/03/14 01:14:26;;;;;;;9.00;6.20;;;12.20;99.90;;;;;;5052784;28;20229;-58
2024/03/14 01:16:53;;;;;;;6.63;5.93;;;12.20;99.90;;;;;;5045089;28;20218;-59
2024/03/14 01:19:20;;;;;;;6.90;5.97;;;12.10;99.90;;;;;;5053112;28;20209;-58
2024/03/14 01:21:46;;;;;;;6.60;5.90;;;12.00;99.90;;;;;;5052961;28;20209;-59
2024/03/14 01:24:13;;;;;;;8.60;5.83;;;12.00;99.90;;;;;;5052689;28;20279;-59
2024/03/14 01:26:41;;;;;;;7.83;6.27;;;12.00;99.90;;;;;;5052812;28;20751;-59
2024/03/14 01:29:08;;;;;;;6.13;5.53;;;12.00;99.90;;;;;;5052719;28;20213;-60
2024/03/14 01:31:36;;;;;;;6.60;5.90;;;12.00;99.90;;;;;;5052785;28;20263;-59
2024/03/14 01:34:02;;;;;;;6.77;6.10;;;12.10;99.90;;;;;;5052597;28;20229;-59
2024/03/14 01:36:29;;;;;;;6.80;5.97;;;12.10;99.90;;;;;;5051546;28;20213;-59
2024/03/14 01:38:56;;;;;;;7.40;6.53;;;12.00;99.90;;;;;;5052741;28;20300;-58
2024/03/14 01:41:23;;;;;;;6.93;6.23;;;12.00;99.90;;;;;;5052691;28;20213;-59
2024/03/14 01:43:58;;;;;;;6.77;5.83;;;12.00;99.90;;;;;;5052028;28;20209;-58
2024/03/14 01:46:27;;;;;;;8.00;5.83;;;12.10;99.90;;;;;;5052471;28;20746;-59
2024/03/14 01:48:54;;;;;;;7.03;6.03;;;12.00;99.90;;;;;;5044445;28;20558;-59
2024/03/14 01:51:22;;;;;;;6.33;5.70;;;12.00;99.90;;;;;;5052510;28;20202;-62
2024/03/14 01:53:50;;;;;;;8.80;6.00;;;12.00;99.90;;;;;;5051673;28;20275;-59
2024/03/14 01:56:17;;;;;;;7.20;6.20;;;12.10;99.90;;;;;;5052249;28;20233;-60
2024/03/14 01:58:44;;;;;;;6.73;5.83;;;12.20;99.90;;;;;;5052371;28;20217;-59
2024/03/14 02:01:12;;;;;;;7.60;6.10;;;12.20;99.90;;;;;;5052262;28;20289;-59
2024/03/14 02:03:40;;;;;;;7.07;5.97;;;12.20;99.90;;;;;;5052146;28;20202;-60
2024/03/14 02:06:08;;;;;;;7.43;5.57;;;12.20;99.90;;;;;;5051937;28;20297;-60
2024/03/14 02:08:35;;;;;;;7.70;6.10;;;12.30;99.90;;;;;;5051604;28;20596;-60
2024/03/14 02:11:02;;;;;;;7.00;6.30;;;12.40;99.90;;;;;;5055576;28;20296;-60
2024/03/14 02:13:29;;;;;;;6.13;5.43;;;12.40;99.90;;;;;;5048574;28;20229;-61
2024/03/14 02:15:56;;;;;;;6.13;4.93;;;12.50;99.90;;;;;;5027463;28;20677;-60
2024/03/14 02:18:23;;;;;;;6.13;5.50;;;12.50;99.90;;;;;;5052124;28;20213;-60
2024/03/14 02:20:49;;;;;;;7.63;6.07;;;12.50;99.90;;;;;;5051730;28;20217;-59
2024/03/14 02:23:17;;;;;;;7.03;6.33;;;12.50;99.90;;;;;;5052332;28;20271;-58
2024/03/14 02:25:44;;;;;;;6.80;6.10;;;12.50;99.90;;;;;;5051489;28;20237;-59
2024/03/14 02:28:13;;;;;;;6.13;5.53;;;12.50;99.90;;;;;;5052181;28;20213;-58
2024/03/14 02:30:40;;;;;;;6.47;5.50;;;12.50;99.90;;;;;;5051853;28;20306;-58
2024/03/14 02:33:08;;;;;;;8.33;6.47;;;12.50;99.90;;;;;;5051907;28;20488;-58
2024/03/14 02:35:35;;;;;;;5.93;5.33;;;12.50;99.90;;;;;;5051533;28;20257;-59
2024/03/14 02:38:02;;;;;;;6.80;6.10;;;12.50;99.90;;;;;;5051663;28;20253;-59
2024/03/14 02:40:29;;;;;;;7.70;5.80;;;12.50;99.90;;;;;;5051917;28;20233;-58
2024/03/14 02:42:56;;;;;;;6.60;5.33;;;12.40;99.90;;;;;;5051774;28;20293;-60
2024/03/14 02:45:22;;;;;;;8.00;6.03;;;12.30;99.90;;;;;;5050911;28;20719;-60
2024/03/14 02:47:50;;;;;;;6.30;5.30;;;12.20;99.90;;;;;;5051103;28;20205;-60
2024/03/14 02:50:18;;;;;;;6.30;5.70;;;12.10;99.90;;;;;;5051535;28;20298;-60
2024/03/14 02:52:45;;;;;;;7.53;5.50;;;12.00;99.90;;;;;;5050954;28;20702;-60
2024/03/14 02:55:12;;;;;;;7.33;5.33;;;11.90;99.90;;;;;;5050856;28;20313;-59
2024/03/14 02:57:40;;;;;;;6.10;5.50;;;11.80;99.90;;;;;;5050938;28;20259;-59
2024/03/14 03:00:15;;;;;;;8.07;5.30;;;11.80;99.90;;;;;;5051475;28;20232;-59
2024/03/14 03:02:42;;;;;;;6.20;5.60;;;11.70;99.90;;;;;;5051007;28;20205;-61
2024/03/14 03:05:10;;;;;;;5.33;4.83;;;11.70;99.90;;;;;;5050599;28;20710;-59
2024/03/14 03:07:37;;;;;;;6.60;5.27;;;11.70;99.90;;;;;;5051085;28;20213;-60
2024/03/14 03:10:05;;;;;;;6.10;5.50;;;11.70;99.90;;;;;;5051195;28;20213;-59
2024/03/14 03:12:33;;;;;;;5.07;4.57;;;11.70;99.90;;;;;;5050819;28;20249;-60
2024/03/14 03:14:59;;;;;;;7.20;5.30;;;11.60;99.90;;;;;;5063028;28;20640;-60
2024/03/14 03:17:27;;;;;;;6.37;5.07;;;11.60;99.90;;;;;;5047063;28;20397;-58
2024/03/14 03:19:53;;;;;;;7.50;5.17;;;11.50;99.90;;;;;;5050465;28;20637;-59
2024/03/14 03:22:22;;;;;;;8.47;5.40;;;11.50;99.90;;;;;;5050722;28;20209;-59
2024/03/14 03:24:48;;;;;;;6.00;5.40;;;11.50;99.90;;;;;;5050204;28;20229;-60
2024/03/14 03:27:15;;;;;;;5.67;5.17;;;11.40;99.90;;;;;;5050682;28;20212;-60
2024/03/14 03:29:41;;;;;;;5.73;5.10;;;11.40;99.90;;;;;;5049147;28;20279;-58
2024/03/14 03:32:08;;;;;;;6.17;5.37;;;11.30;99.90;;;;;;5043668;28;20660;-59
2024/03/14 03:34:34;;;;;;;7.27;5.50;;;11.30;99.90;;;;;;5058112;28;20712;-59
2024/03/14 03:37:00;;;;;;;8.50;5.20;;;11.20;99.90;;;;;;5050870;28;20205;-60
2024/03/14 03:39:27;;;;;;;6.40;5.17;;;11.10;99.90;;;;;;5050695;28;20209;-60
2024/03/14 03:41:53;;;;;;;7.27;5.83;;;11.00;99.90;;;;;;5050238;28;20201;-59
2024/03/14 03:44:20;;;;;;;8.07;5.67;;;11.00;99.90;;;;;;5050180;28;20271;-60
2024/03/14 03:46:46;;;;;;;6.63;5.93;;;10.90;99.90;;;;;;5050139;28;20209;-61
2024/03/14 03:49:14;;;;;;;6.53;5.50;;;10.90;99.90;;;;;;5050521;28;20209;-59
2024/03/14 03:51:40;;;;;;;6.93;5.73;;;10.90;99.90;;;;;;5050312;28;20210;-59
2024/03/14 03:54:07;;;;;;;5.80;5.20;;;10.80;99.90;;;;;;5050305;28;20226;-60
2024/03/14 03:56:33;;;;;;;6.53;5.90;;;10.90;99.90;;;;;;5050162;28;20296;-60
2024/03/14 03:59:00;;;;;;;6.50;5.90;;;10.90;99.90;;;;;;5049679;28;20214;-60
2024/03/14 04:01:27;;;;;;;7.47;6.10;;;10.80;99.90;;;;;;5051240;28;20210;-60
2024/03/14 04:03:54;;;;;;;6.80;5.10;;;10.90;99.90;;;;;;5049387;28;20205;-60
2024/03/14 04:06:21;;;;;;;6.90;5.90;;;10.80;99.90;;;;;;5050463;28;20217;-60
2024/03/14 04:08:47;;;;;;;6.10;5.50;;;10.80;99.90;;;;;;5050312;28;20210;-60
2024/03/14 04:11:15;;;;;;;6.40;5.80;;;10.80;99.90;;;;;;5050167;28;20633;-60
2024/03/14 04:13:41;;;;;;;6.00;5.40;;;10.70;99.90;;;;;;5049874;28;20213;-60
2024/03/14 04:16:08;;;;;;;6.33;5.73;;;10.80;99.90;;;;;;5050055;28;20221;-60
2024/03/14 04:18:35;;;;;;;6.50;5.70;;;10.80;99.90;;;;;;5050011;28;20675;-60
2024/03/14 04:21:02;;;;;;;8.33;5.53;;;10.80;99.90;;;;;;5050115;28;20488;-60
2024/03/14 04:23:29;;;;;;;6.87;5.43;;;10.80;99.90;;;;;;5050192;28;20206;-60
2024/03/14 04:25:57;;;;;;;6.63;5.77;;;10.80;99.90;;;;;;5049872;28;20646;-60
2024/03/14 04:28:24;;;;;;;7.03;5.80;;;10.80;99.90;;;;;;5051123;28;20241;-60
2024/03/14 04:30:51;;;;;;;5.97;5.37;;;10.80;99.90;;;;;;5048959;28;20292;-60
2024/03/14 04:33:18;;;;;;;5.97;5.30;;;10.80;99.90;;;;;;5050305;28;20206;-60
2024/03/14 04:35:45;;;;;;;5.47;4.97;;;10.70;99.90;;;;;;5049405;28;20763;-60
2024/03/14 04:38:12;;;;;;;5.77;5.27;;;10.70;99.90;;;;;;5050053;28;20210;-60
2024/03/14 04:40:39;;;;;;;5.50;5.00;;;10.60;99.90;;;;;;5050100;28;20252;-60
2024/03/14 04:43:07;;;;;;;6.53;5.20;;;10.60;99.90;;;;;;5049960;28;20225;-60
2024/03/14 04:45:34;;;;;;;5.63;5.03;;;10.50;99.90;;;;;;5049238;28;20262;-60
2024/03/14 04:48:04;;;;;;;7.23;5.30;;;10.50;99.90;;;;;;5050060;28;20206;-60
2024/03/14 04:50:31;;;;;;;6.67;6.07;;;10.50;99.90;;;;;;5050124;28;20217;-60
2024/03/14 04:52:58;;;;;;;7.40;5.23;;;10.60;99.90;;;;;;5049562;28;20579;-60
2024/03/14 04:55:24;;;;;;;6.73;6.03;;;10.60;99.90;;;;;;5049175;28;20237;-60
2024/03/14 04:57:51;;;;;;;7.93;5.20;;;10.60;99.90;;;;;;5049811;28;20628;-60
2024/03/14 05:00:21;;;;;;;6.03;5.43;;;10.60;99.90;;;;;;5060197;28;20210;-60
2024/03/14 05:02:49;;;;;;;6.80;5.17;;;10.60;99.90;;;;;;5048322;28;20509;-60
2024/03/14 05:05:15;;;;;;;6.83;5.30;;;10.60;99.90;;;;;;5049407;28;20275;-60
2024/03/14 05:07:43;;;;;;;5.97;5.20;;;10.50;99.90;;;;;;5049634;28;20209;-61
2024/03/14 05:10:09;;;;;;;6.63;4.93;;;10.40;99.90;;;;;;5049688;28;20309;-61
2024/03/14 05:12:36;;;;;;;5.40;4.87;;;10.40;99.90;;;;;;5052893;28;20305;-61
2024/03/14 05:15:07;;;;;;;6.63;5.00;;;10.40;99.90;;;;;;5056981;28;20276;-60
2024/03/14 05:17:34;;;;;;;5.67;5.00;;;10.40;99.90;;;;;;5049516;28;20213;-61
2024/03/14 05:20:01;;;;;;;5.30;4.70;;;10.40;99.90;;;;;;5053141;28;20248;-61
2024/03/14 05:22:28;;;;;;;5.10;4.60;;;10.30;99.90;;;;;;5052870;28;20555;-60
2024/03/14 05:24:58;;;;;;;5.63;5.03;;;10.40;99.90;;;;;;5052569;28;20235;-60
2024/03/14 05:27:25;;;;;;;9.77;5.50;;;10.30;99.90;;;;;;5062290;28;20214;-61
2024/03/14 05:29:51;;;;;;;7.03;5.27;;;10.30;99.90;;;;;;5051667;28;20210;-61
2024/03/14 05:32:21;;;;;;;5.87;5.07;;;10.20;99.90;;;;;;5052784;28;20613;-59
2024/03/14 05:34:49;;;;;;;4.97;4.47;;;10.20;99.90;;;;;;5052208;28;20305;-61
2024/03/14 05:37:15;;;;;;;5.97;4.70;;;10.10;99.90;;;;;;5052536;28;20231;-60
2024/03/14 05:39:42;;;;;;;5.83;4.87;;;10.00;99.90;;;;;;5052884;28;20626;-60
2024/03/14 05:42:12;;;;;;;5.27;4.70;;;10.00;99.90;;;;;;5052562;28;20205;-60
2024/03/14 05:44:40;;;;;;;6.77;4.77;;;10.00;99.90;;;;;;5052252;28;20329;-60
2024/03/14 05:47:09;;;;;;;5.53;5.00;;;10.00;99.90;;;;;;5052538;28;20300;-60
2024/03/14 05:49:36;;;;;;;5.07;4.27;;;10.00;99.90;;;;;;5052082;28;20296;-60
2024/03/14 05:52:03;;;;;;;5.57;4.90;;;10.00;99.90;;;;;;5052679;28;20213;-60
2024/03/14 05:54:30;;;;;;;6.10;5.00;;;10.00;99.90;;;;;;5052650;28;20719;-60
2024/03/14 05:56:57;;;;;;;5.40;4.90;;;10.00;99.90;;;;;;5035956;28;20206;-61
2024/03/14 05:59:24;;;;;;;7.53;5.20;;;10.00;99.90;;;;;;5052253;28;20743;-60
2024/03/14 06:01:52;;;;;;;5.67;5.07;;;10.10;99.90;;;;;;5051879;28;20210;-61
2024/03/14 06:04:21;;;;;;;5.57;4.70;;;10.10;99.90;;;;;;5051647;28;20327;-61
2024/03/14 06:06:48;;;;;;;5.17;4.67;;;10.10;99.90;;;;;;5051918;28;20206;-60
2024/03/14 06:09:15;;;;;;;8.03;4.93;;;10.20;99.90;;;;;;5055270;28;20206;-61
2024/03/14 06:11:42;;;;;;;5.43;4.90;;;10.30;99.90;;;;;;5049291;28;20256;-59
2024/03/14 06:14:10;;;;;;;8.30;6.70;;;10.40;99.90;;;;;;5051513;28;20238;-60
2024/03/14 06:16:37;;;;;;;6.23;4.90;;;10.40;99.90;;;;;;5051425;28;20257;-59
2024/03/14 06:19:06;;;;;;;6.57;5.43;;;10.50;99.90;;;;;;5059826;28;20668;-60
2024/03/14 06:21:33;;;;;;;5.77;5.13;;;10.60;99.90;;;;;;5051542;28;20748;-60
2024/03/14 06:24:00;;;;;;;7.13;5.27;;;10.60;99.90;;;;;;5051154;28;20279;-61
2024/03/14 06:26:27;;;;;;;5.70;5.10;;;10.70;99.90;;;;;;5053164;28;20214;-60
2024/03/14 06:28:54;;;;;;;7.70;4.93;;;10.50;99.90;;;;;;5050572;28;20218;-61
2024/03/14 06:31:21;;;;;;;5.57;4.53;;;10.50;99.90;;;;;;5051518;28;20233;-61
2024/03/14 06:33:50;;;;;;;4.57;4.17;;;10.50;99.90;;;;;;5051342;28;20627;-59
2024/03/14 06:36:18;;;;;;;5.00;4.50;;;10.50;99.90;;;;;;5051710;28;20221;-60
2024/03/14 06:38:46;;;;;;;5.07;4.50;;;10.60;99.90;;;;;;5051098;28;20576;-59
2024/03/14 06:41:13;;;;;;;5.43;4.50;;;10.70;99.90;;;;;;5054703;28;20268;-61
2024/03/14 06:43:42;;;;;;;4.53;4.07;;;10.90;99.90;;;;;;5047995;28;20300;-61
2024/03/14 06:46:10;;;;;;;5.37;4.70;;;11.00;99.90;;;;;;5051378;28;20209;-60
2024/03/14 06:48:36;;;;;;;5.10;4.60;;;11.20;99.90;;;;;;5051446;28;20683;-60
2024/03/14 06:51:03;;;;;;;5.40;4.87;;;11.30;99.90;;;;;;5026854;28;20210;-61
2024/03/14 06:53:30;;;;;;;6.10;5.33;;;11.50;99.90;;;;;;5051425;28;20209;-60
2024/03/14 06:55:57;;;;;;;5.10;4.60;;;11.70;99.90;;;;;;5050513;28;20272;-60
2024/03/14 06:58:25;;;;;;;5.87;4.93;;;11.80;99.90;;;;;;5052708;28;20575;-61
2024/03/14 07:00:52;;;;;;;5.77;4.80;;;11.90;99.90;;;;;;5049357;28;20754;-60
2024/03/14 07:03:18;;;;;;;5.47;4.83;;;12.00;99.90;;;;;;5051259;28;20213;-61
2024/03/14 07:05:45;;;;;;;5.33;4.70;;;12.20;99.90;;;;;;5050474;28;20240;-59
2024/03/14 07:08:12;;;;;;;8.17;7.37;;;12.00;99.90;;;;;;5054454;28;20221;-61
2024/03/14 07:10:39;;;;;;;7.03;6.30;;;12.10;99.90;;;;;;5047455;28;20701;-61
2024/03/14 07:13:07;;;;;;;6.30;5.67;;;12.30;99.90;;;;;;5050810;28;20656;-61
2024/03/14 07:15:35;;;;;;;5.73;5.10;;;12.50;99.90;;;;;;5050619;28;20229;-60
2024/03/14 07:18:05;;;;;;;6.67;6.07;;;12.60;99.90;;;;;;5050673;28;20209;-61
2024/03/14 07:20:35;;;;;;;5.63;5.13;;;12.70;99.90;;;;;;5050813;28;20301;-61
2024/03/14 07:23:02;;;;;;;7.53;5.47;;;12.80;99.90;;;;;;5050501;28;20209;-60
2024/03/14 07:25:30;;;;;;;6.30;5.50;;;12.90;99.90;;;;;;5051317;28;20489;-58
2024/03/14 07:27:57;;;;;;;5.73;5.13;;;12.90;99.90;;;;;;5049856;28;20236;-58
2024/03/14 07:30:25;;;;;;;5.93;5.33;;;12.80;99.90;;;;;;5050459;28;20221;-58
2024/03/14 07:32:52;;;;;;;5.60;5.10;;;12.90;99.90;;;;;;5050079;28;20292;-58
2024/03/14 07:35:19;;;;;;;5.80;5.23;;;13.00;99.90;;;;;;5050105;28;20236;-58
2024/03/14 07:37:47;;;;;;;4.30;3.90;;;13.00;99.90;;;;;;5050141;28;20214;-58
2024/03/14 07:40:16;;;;;;;4.13;3.73;;;13.20;99.90;;;;;;5050438;28;20213;-58
2024/03/14 07:42:44;;;;;;;4.90;3.90;;;13.20;99.90;;;;;;5050154;28;20694;-58
2024/03/14 07:45:16;;;;;;;5.40;4.43;;;13.30;99.90;;;;;;5050057;28;20664;-58
2024/03/14 07:47:43;;;;;;;5.17;4.60;;;13.40;99.90;;;;;;5050119;28;20213;-58
2024/03/14 07:50:11;;;;;;;4.93;4.43;;;13.60;99.90;;;;;;5058602;28;20210;-57
2024/03/14 07:52:38;;;;;;;4.77;4.13;;;13.90;99.90;;;;;;5058381;28;20259;-58
2024/03/14 07:55:07;;;;;;;7.13;4.47;;;13.90;99.90;;;;;;5046221;28;20272;-57
2024/03/14 07:57:35;;;;;;;4.73;4.20;;;14.20;99.90;;;;;;5045948;28;20209;-58
2024/03/14 08:00:04;;;;;;;4.43;4.03;;;14.30;99.90;;;;;;5050056;28;20202;-57
2024/03/14 08:02:33;;;;;;;6.07;4.87;;;14.40;99.90;;;;;;5051060;28;20217;-57
2024/03/14 08:05:02;;;;;;;4.77;4.27;;;14.40;99.90;;;;;;5048885;28;20279;-58
2024/03/14 08:07:29;;;;;;;16.10;13.47;;;14.50;99.90;;;;;;5050105;28;20209;-58
2024/03/14 08:09:57;;;;;;;4.27;3.87;;;14.60;99.90;;;;;;5033266;28;20710;-57
2024/03/14 08:12:24;;;;;;;7.17;4.33;;;14.60;99.90;;;;;;5050106;28;20239;-57
2024/03/14 08:14:58;;;;;;;5.63;4.50;;;14.60;99.90;;;;;;5049286;28;20581;-57
2024/03/14 08:17:26;;;;;;;5.03;4.07;;;14.60;99.90;;;;;;5050249;28;20229;-58
2024/03/14 08:19:56;;;;;;;4.50;4.00;;;14.60;99.90;;;;;;5041707;28;20291;-57
2024/03/14 08:22:23;;;;;;;5.60;4.13;;;14.60;99.90;;;;;;5049993;28;20214;-57
2024/03/14 08:24:52;;;;;;;4.47;3.80;;;14.70;99.90;;;;;;5049502;28;20232;-58
2024/03/14 08:27:20;;;;;;;4.33;3.47;;;14.80;99.90;;;;;;5049796;28;20652;-57
2024/03/14 08:29:47;;;;;;;3.80;3.50;;;14.90;99.90;;;;;;5049497;28;20213;-57
2024/03/14 08:32:15;;;;;;;5.47;3.77;;;15.00;99.90;;;;;;5049481;28;20651;-57
2024/03/14 08:34:41;;;;;;;6.20;3.73;;;15.10;99.90;;;;;;5049571;28;20225;-56
2024/03/14 08:37:10;;;;;;;3.97;3.67;;;15.20;99.90;;;;;;5049723;28;20221;-57
2024/03/14 08:39:37;;;;;;;4.17;3.50;;;15.30;99.90;;;;;;5049695;28;20213;-57
2024/03/14 08:42:08;;;;;;;4.67;3.87;;;15.40;99.90;;;;;;5049600;28;20206;-58
2024/03/14 08:44:34;;;;;;;5.07;3.93;;;15.50;99.90;;;;;;5050378;28;20241;-58
2024/03/14 08:47:01;;;;;;;4.50;4.10;;;15.50;99.90;;;;;;5052920;28;20636;-57
2024/03/14 08:49:31;;;;;;;7.47;4.20;;;15.60;99.90;;;;;;5053786;28;20284;-58
2024/03/14 08:52:00;;;;;;;6.17;3.90;;;15.60;99.90;;;;;;5053580;28;20331;-58
2024/03/14 08:54:29;;;;;;;3.97;3.50;;;15.60;99.90;;;;;;5053074;28;20237;-57
2024/03/14 08:56:58;;;;;;;3.85;3.40;;;15.70;99.90;;;;;;5053286;28;20233;-57
2024/03/14 08:59:26;;;;;;;5.07;4.53;;;15.70;99.90;;;;;;5053250;28;20217;-57
2024/03/14 09:01:54;;;;;;;7.13;3.53;;;15.60;99.90;;;;;;5053315;28;20272;-56
2024/03/14 09:04:22;;;;;;;3.70;3.10;;;15.70;99.90;;;;;;5053274;28;20634;-58
2024/03/14 09:06:50;;;;;;;5.10;4.57;;;15.70;99.90;;;;;;5053351;28;20209;-57
2024/03/14 09:09:26;;;;;;;3.33;3.03;;;15.80;99.90;;;;;;5053229;28;20241;-57
2024/03/14 09:11:55;;;;;;;6.50;3.20;;;15.80;99.90;;;;;;5053219;28;20209;-57
2024/03/14 09:14:24;;;;;;;3.55;2.70;;;16.00;99.90;;;;;;5053375;28;20259;-57
2024/03/14 09:16:51;;;;;;;2.38;2.10;;;16.10;99.90;;;;;;5053206;28;20252;-57
2024/03/14 09:19:18;;;;;;;2.83;1.98;;;16.20;99.90;;;;;;5053573;28;20209;-57
2024/03/14 09:21:45;;;;;;;4.85;2.80;;;16.40;99.90;;;;;;5052836;28;20209;-57
2024/03/14 09:24:15;;;;;;;5.13;2.40;;;16.60;99.90;;;;;;5052679;28;20225;-57
2024/03/14 09:26:43;;;;;;;2.65;1.83;;;16.80;99.90;;;;;;5053219;28;20626;-58
2024/03/14 09:29:11;;;;;;;3.45;2.80;;;17.10;99.90;;;;;;5053371;28;20292;-58
2024/03/14 09:31:38;;;;;;;2.80;2.47;;;17.10;99.90;;;;;;5052916;28;20616;-57
2024/03/14 09:34:05;;;;;;;2.40;2.15;;;17.30;99.90;;;;;;5052523;28;20268;-58
2024/03/14 09:36:32;;;;;;;6.63;4.45;;;17.40;99.90;;;;;;5052679;28;20644;-57
2024/03/14 09:38:59;;;;;;;2.70;2.50;;;17.60;99.90;;;;;;5052484;28;20743;-58
2024/03/14 09:41:26;;;;;;;2.03;1.88;;;17.70;99.90;;;;;;5052802;28;20300;-57
2024/03/14 09:43:53;;;;;;;2.80;1.70;;;17.90;99.90;;;;;;5052375;28;20209;-58
2024/03/14 09:46:20;;;;;;;1.55;1.45;;;18.10;99.90;;;;;;5052798;28;20714;-58
2024/03/14 09:48:47;;;;;;;1.65;1.33;;;18.40;99.90;;;;;;5052468;28;20218;-58
2024/03/14 09:51:16;;;;;;;3.97;1.13;;;18.50;99.90;;;;;;5052493;28;20284;-58
2024/03/14 09:53:43;;;;;;;3.20;1.38;;;18.60;99.90;;;;;;5052252;28;20731;-58
2024/03/14 09:56:10;;;;;;;1.33;1.10;;;18.70;99.90;;;;;;5051863;28;20218;-56
2024/03/14 09:58:37;;;;;;;1.92;1.15;;;18.90;99.90;;;;;;5052302;28;20667;-55
2024/03/14 10:01:04;;;;;;;2.45;1.10;;;19.00;99.90;;;;;;5052053;28;20721;-56
2024/03/14 10:03:31;;;;;;;4.97;1.48;;;19.00;99.90;;;;;;5052203;28;20297;-54
2024/03/14 10:05:58;;;;;;;1.00;0.90;;;19.10;99.90;;;;;;5051617;28;20752;-53
2024/03/14 10:08:28;;;;;;;3.08;1.35;;;19.20;99.90;;;;;;5052410;28;20205;-54
2024/03/14 10:10:54;;;;;;;2.15;0.70;;;19.30;99.90;;;;;;5052216;28;20220;-58
2024/03/14 10:13:26;;;;;;;1.23;0.98;;;19.30;99.90;;;;;;5052066;28;20209;-54
2024/03/14 10:15:54;;;;;;;3.03;1.00;;;19.30;99.90;;;;;;5051717;28;20328;-55
2024/03/14 10:18:22;;;;;;;2.55;0.98;;;19.40;99.90;;;;;;5051874;28;20729;-55
2024/03/14 10:20:49;;;;;;;1.67;1.00;;;19.60;99.90;;;;;;5051722;28;20584;-54
2024/03/14 10:23:18;;;;;;;2.25;1.08;;;19.60;99.90;;;;;;5052409;28;20210;-53
2024/03/14 10:25:50;;;;;;;1.20;0.90;;;19.70;99.90;;;;;;5051442;28;20241;-55
2024/03/14 10:28:20;;;;;;;1.52;0.80;;;19.80;99.90;;;;;;5054963;28;20217;-57
2024/03/14 10:30:51;;;;;;;1.10;0.98;;;20.00;99.90;;;;;;5048470;28;20210;-53
2024/03/14 10:33:18;;;;;;;0.93;0.82;;;20.00;99.90;;;;;;5051666;28;20210;-54
2024/03/14 10:35:46;;;;;;;0.90;0.90;;;20.00;99.90;;;;;;5034931;28;20256;-55
2024/03/14 10:38:14;;;;;;;4.50;0.90;;;20.00;99.90;;;;;;5051826;28;20244;-55
2024/03/14 10:40:41;;;;;;;1.15;0.73;;;20.10;99.90;;;;;;5051797;28;20216;-54
2024/03/14 10:43:08;;;;;;;1.08;0.70;;;20.20;99.90;;;;;;5052123;28;20292;-55
2024/03/14 10:45:35;;;;;;;3.67;1.00;;;20.20;99.90;;;;;;5051488;28;20670;-53
2024/03/14 10:48:02;;;;;;;2.13;0.95;;;20.10;99.90;;;;;;5051434;28;20653;-54
2024/03/14 10:50:30;;;;;;;2.08;0.77;;;20.10;99.90;;;;;;5051430;28;20217;-54
2024/03/14 10:52:58;;;;;;;2.35;1.52;;;20.00;99.90;;;;;;5051297;28;20210;-54
2024/03/14 10:55:25;;;;;;;1.75;1.02;;;20.10;99.90;;;;;;5051095;28;20316;-54
2024/03/14 10:57:51;;;;;;;1.00;0.90;;;20.20;99.90;;;;;;5050745;28;20711;-55
2024/03/14 11:00:18;;;;;;;1.98;0.60;;;20.30;99.90;;;;;;5051237;28;20202;-55
2024/03/14 11:02:46;;;;;;;2.20;1.15;;;20.40;99.90;;;;;;5051567;28;20616;-56
2024/03/14 11:05:17;;;;;;;2.30;0.95;;;20.40;99.90;;;;;;5050838;28;20228;-54
2024/03/14 11:07:45;;;;;;;0.90;0.65;;;20.60;99.90;;;;;;5058750;28;20216;-54
2024/03/14 11:10:12;;;;;;;2.67;0.73;;;20.50;99.90;;;;;;5055514;28;20249;-59
2024/03/14 11:12:39;;;;;;;3.47;2.38;;;20.50;99.90;;;;;;5046538;28;20210;-55
2024/03/14 11:15:08;;;;;;;3.92;2.65;;;20.50;99.90;;;;;;5033423;28;20248;-57
2024/03/14 11:17:35;;;;;;;1.83;1.38;;;20.70;99.90;;;;;;5034822;28;20582;-56
2024/03/14 11:20:09;;;;;;;2.17;0.70;;;20.70;99.90;;;;;;5034841;28;20335;-58
2024/03/14 11:22:37;;;;;;;2.22;1.20;;;20.80;99.90;;;;;;5031193;28;20393;-56
2024/03/14 11:25:05;;;;;;;1.00;0.85;;;21.00;99.90;;;;;;5025088;28;20255;-56
2024/03/14 11:27:33;;;;;;;2.70;0.60;;;21.00;99.90;;;;;;5030997;28;20646;-57
2024/03/14 11:30:00;;;;;;;2.20;1.98;;;20.80;99.90;;;;;;5025290;28;20202;-55
2024/03/14 11:32:31;;;;;;;2.67;1.90;;;20.90;99.90;;;;;;5034734;28;20289;-56
2024/03/14 11:35:20;;;;;;;1.42;0.80;;;21.00;99.90;;;;;;5034507;28;20256;-55
2024/03/14 11:37:51;;;;;;;0.90;0.70;;;21.10;99.90;;;;;;5050760;28;20605;-55
2024/03/14 11:40:20;;;;;;;1.83;0.57;;;21.30;99.90;;;;;;5034604;28;20221;-58
2024/03/14 11:42:49;;;;;;;0.43;0.38;;;21.40;99.90;;;;;;5034383;28;20245;-56
2024/03/14 11:45:16;;;;;;;0.63;0.50;;;21.60;99.90;;;;;;5033590;28;20643;-55
2024/03/14 11:47:43;;;;;;;0.47;0.47;;;21.50;99.90;;;;;;5034202;28;20293;-56
2024/03/14 11:50:12;;;;;;;1.50;0.30;;;21.30;99.90;;;;;;5034069;28;20256;-55
2024/03/14 11:52:40;;;;;;;1.10;0.47;;;21.00;99.90;;;;;;5034811;28;20217;-55
2024/03/14 11:55:11;;;;;;;2.15;0.80;;;20.70;99.90;;;;;;5034020;28;20233;-57
2024/03/14 11:57:39;;;;;;;0.52;0.52;;;20.60;99.90;;;;;;5034644;28;20323;-55
2024/03/14 12:00:08;;;;;;;2.42;2.00;;;20.40;99.90;;;;;;5034334;28;20760;-56
2024/03/14 12:02:34;;;;;;;1.08;0.47;;;20.20;99.90;;;;;;5030549;28;20718;-55
2024/03/14 12:05:05;;;;;;;1.00;0.40;;;20.10;99.90;;;;;;5024444;28;20229;-56
2024/03/14 12:07:33;;;;;;;0.77;0.30;;;20.20;99.90;;;;;;5034744;28;20202;-56
2024/03/14 12:10:00;;;;;;;0.30;0.30;;;20.20;99.90;;;;;;5034292;28;20216;-55
2024/03/14 12:12:27;;;;;;;2.35;1.80;;;20.10;99.90;;;;;;5033920;28;20212;-58
2024/03/14 12:14:56;;;;;;;1.60;1.40;;;20.20;99.90;;;;;;5033826;28;20221;-56
2024/03/14 12:17:23;;;;;;;1.65;1.00;;;20.30;99.90;;;;;;5034283;28;20259;-58
2024/03/14 12:19:54;;;;;;;1.17;0.65;;;20.40;99.90;;;;;;5035286;28;20209;-55
2024/03/14 12:22:21;;;;;;;0.47;0.47;;;20.40;99.90;;;;;;5037977;28;20212;-55
2024/03/14 12:24:54;;;;;;;1.77;0.70;;;20.50;99.90;;;;;;5037720;28;20726;-55
2024/03/14 12:27:21;;;;;;;1.00;0.57;;;20.60;99.90;;;;;;5038091;28;20297;-56
2024/03/14 12:29:48;;;;;;;0.50;0.30;;;20.60;99.90;;;;;;5037986;28;20213;-58
2024/03/14 12:32:16;;;;;;;0.63;0.45;;;20.50;99.90;;;;;;5038042;28;20217;-56
2024/03/14 12:34:43;;;;;;;0.85;0.50;;;20.70;99.90;;;;;;5037525;28;20226;-55
2024/03/14 12:37:12;;;;;;;2.95;0.50;;;20.80;99.90;;;;;;5037735;28;20263;-56
2024/03/14 12:39:39;;;;;;;0.60;0.45;;;20.80;99.90;;;;;;5038060;28;20245;-56
2024/03/14 12:42:06;;;;;;;0.45;0.40;;;20.80;99.90;;;;;;5037323;28;20275;-57
2024/03/14 12:44:33;;;;;;;0.80;0.40;;;20.90;99.90;;;;;;5033967;28;20226;-55
2024/03/14 12:47:00;;;;;;;0.60;0.38;;;20.90;99.90;;;;;;5027247;28;20737;-58
2024/03/14 12:49:28;;;;;;;0.60;0.40;;;20.90;99.90;;;;;;5037453;28;20210;-56